Time;durP1;ratioP1;P1;durP2;ratioP2;P2;SDS_P1;SDS_P2;PMS_P1;PMS_P2;Temp;Humidity;BMP_temperature;BMP_pressure;BME280_temperature;BME280_humidity;BME280_pressure;Samples;Min_cycle;Max_cycle;Signal;HPM_P1;HPM_P2
2021/04/25 00:00:23;;;;;;;20.42;9.25;;;3.40;76.50;;;;;;5078307;28;20326;-69
2021/04/25 00:02:50;;;;;;;13.05;7.30;;;3.30;76.50;;;;;;5062546;28;20028;-69
2021/04/25 00:05:19;;;;;;;16.08;8.70;;;3.30;76.70;;;;;;5059628;28;20040;-69
2021/04/25 00:07:45;;;;;;;15.65;8.88;;;3.30;76.80;;;;;;5046364;28;20029;-69
2021/04/25 00:10:12;;;;;;;18.58;7.95;;;3.20;76.80;;;;;;5032820;28;20021;-69
2021/04/25 00:12:43;;;;;;;12.52;7.97;;;3.20;77.00;;;;;;5045646;28;20021;-69
2021/04/25 00:15:29;;;;;;;12.32;6.57;;;3.10;77.20;;;;;;5073726;28;20024;-70
2021/04/25 00:17:57;;;;;;;17.95;9.02;;;3.00;77.50;;;;;;5073192;28;20059;-69
2021/04/25 00:20:23;;;;;;;12.48;7.85;;;3.00;77.50;;;;;;5073656;28;20501;-69
2021/04/25 00:22:49;;;;;;;17.05;8.27;;;3.00;77.30;;;;;;5073546;28;20115;-68
2021/04/25 00:25:16;;;;;;;14.52;8.70;;;3.00;77.40;;;;;;5073611;28;20020;-69
2021/04/25 00:27:43;;;;;;;13.55;8.10;;;3.00;77.30;;;;;;5073144;28;20070;-70
2021/04/25 00:30:12;;;;;;;17.17;8.50;;;2.90;77.40;;;;;;5073291;28;20482;-70
2021/04/25 00:32:38;;;;;;;12.57;7.80;;;2.90;77.50;;;;;;5072757;28;20031;-70
2021/04/25 00:35:04;;;;;;;14.77;8.25;;;2.90;77.60;;;;;;5068816;28;20017;-69
2021/04/25 00:37:30;;;;;;;16.73;9.50;;;2.80;78.00;;;;;;5058876;28;20024;-69
2021/04/25 00:39:56;;;;;;;12.02;8.18;;;2.80;77.90;;;;;;5073180;28;20074;-69
2021/04/25 00:42:21;;;;;;;14.65;8.73;;;2.70;78.00;;;;;;5073090;28;20107;-70
2021/04/25 00:44:51;;;;;;;15.52;8.90;;;2.70;78.10;;;;;;5073200;28;20038;-69
2021/04/25 00:47:16;;;;;;;17.23;9.10;;;2.60;78.40;;;;;;5072841;28;20386;-70
2021/04/25 00:49:42;;;;;;;16.30;9.38;;;2.70;78.30;;;;;;5072950;28;20024;-70
2021/04/25 00:52:08;;;;;;;13.93;9.05;;;2.60;78.10;;;;;;5072835;28;20545;-70
2021/04/25 00:54:35;;;;;;;15.70;8.60;;;2.50;78.40;;;;;;5071572;28;20021;-70
2021/04/25 00:57:01;;;;;;;12.60;7.85;;;2.50;78.50;;;;;;5072605;28;20023;-70
2021/04/25 00:59:27;;;;;;;12.60;7.63;;;2.60;78.30;;;;;;5072458;28;20029;-70
2021/04/25 01:01:53;;;;;;;12.68;8.40;;;2.50;78.40;;;;;;5063069;28;20025;-70
2021/04/25 01:04:19;;;;;;;19.75;9.10;;;2.50;78.70;;;;;;5052747;28;20021;-70
2021/04/25 01:06:45;;;;;;;15.15;8.73;;;2.50;78.70;;;;;;5051097;28;20037;-69
2021/04/25 01:09:11;;;;;;;17.83;8.10;;;2.40;78.80;;;;;;5033289;28;20030;-70
2021/04/25 01:11:37;;;;;;;16.90;8.85;;;2.30;79.00;;;;;;5032644;28;20061;-70
2021/04/25 01:14:03;;;;;;;16.92;8.27;;;2.30;78.90;;;;;;5067579;28;20048;-69
2021/04/25 01:16:30;;;;;;;18.27;8.48;;;2.40;78.80;;;;;;5071023;28;20024;-70
2021/04/25 01:18:56;;;;;;;16.90;7.80;;;2.30;78.70;;;;;;5073492;28;20027;-70
2021/04/25 01:21:22;;;;;;;12.93;8.60;;;2.30;78.90;;;;;;5072246;28;20490;-70
2021/04/25 01:23:49;;;;;;;11.18;7.30;;;2.30;78.90;;;;;;5072243;28;20086;-70
2021/04/25 01:26:16;;;;;;;10.65;7.40;;;2.30;79.10;;;;;;5072145;28;20433;-69
2021/04/25 01:28:42;;;;;;;15.80;7.30;;;2.30;78.70;;;;;;5072289;28;20394;-69
2021/04/25 01:31:08;;;;;;;11.20;7.28;;;2.40;78.30;;;;;;5072079;28;20051;-70
2021/04/25 01:33:35;;;;;;;17.85;8.48;;;2.50;78.10;;;;;;5072250;28;20021;-69
2021/04/25 01:36:02;;;;;;;15.65;7.45;;;2.60;78.00;;;;;;5059828;28;20055;-70
2021/04/25 01:38:27;;;;;;;12.65;7.38;;;2.90;77.10;;;;;;5065211;28;20360;-68
2021/04/25 01:40:53;;;;;;;15.02;7.68;;;2.90;77.00;;;;;;5070872;28;20024;-69
2021/04/25 01:43:18;;;;;;;14.63;8.18;;;3.00;77.10;;;;;;5072042;28;20398;-73
2021/04/25 01:45:44;;;;;;;16.30;8.88;;;3.10;77.20;;;;;;5070819;28;20502;-68
2021/04/25 01:48:10;;;;;;;15.30;8.23;;;3.20;76.80;;;;;;5071613;28;20056;-69
2021/04/25 01:50:37;;;;;;;14.73;7.60;;;3.40;77.00;;;;;;5071789;28;20074;-67
2021/04/25 01:53:03;;;;;;;11.80;7.93;;;3.40;76.50;;;;;;5070675;28;20028;-68
2021/04/25 01:55:31;;;;;;;13.95;7.97;;;3.50;76.40;;;;;;5071972;28;20028;-68
2021/04/25 01:57:59;;;;;;;13.98;7.72;;;3.50;76.20;;;;;;5070046;28;20116;-68
2021/04/25 02:00:29;;;;;;;13.48;8.00;;;3.60;76.40;;;;;;5071934;28;20020;-68
2021/04/25 02:02:56;;;;;;;14.98;8.40;;;3.70;75.90;;;;;;5053507;28;20029;-68
2021/04/25 02:05:24;;;;;;;17.42;8.73;;;3.70;75.80;;;;;;5051750;28;20033;-68
2021/04/25 02:07:50;;;;;;;20.08;8.10;;;3.80;76.00;;;;;;5042063;28;20487;-68
2021/04/25 02:10:17;;;;;;;18.45;8.50;;;3.80;75.70;;;;;;5031690;28;20025;-68
2021/04/25 02:12:42;;;;;;;14.65;7.65;;;4.00;75.50;;;;;;5045070;28;20099;-68
2021/04/25 02:15:10;;;;;;;15.32;8.68;;;3.90;75.50;;;;;;5070396;28;20059;-68
2021/04/25 02:17:35;;;;;;;11.90;8.32;;;4.00;75.70;;;;;;5071249;28;20077;-68
2021/04/25 02:20:05;;;;;;;14.82;8.80;;;4.00;75.40;;;;;;5075141;28;20076;-68
2021/04/25 02:22:30;;;;;;;17.80;8.57;;;4.00;75.10;;;;;;5078443;28;20052;-69
2021/04/25 02:24:56;;;;;;;14.00;8.27;;;4.00;75.10;;;;;;5078220;28;20103;-68
2021/04/25 02:27:22;;;;;;;14.10;8.10;;;4.10;74.70;;;;;;5076496;28;20440;-68
2021/04/25 02:29:47;;;;;;;18.63;8.82;;;4.10;74.90;;;;;;5076846;28;20396;-68
2021/04/25 02:32:13;;;;;;;14.43;8.48;;;4.20;74.60;;;;;;5076535;28;20025;-68
2021/04/25 02:34:41;;;;;;;16.92;8.20;;;4.30;73.70;;;;;;5077210;28;20027;-68
2021/04/25 02:37:06;;;;;;;16.38;8.30;;;4.30;73.70;;;;;;5060612;28;20441;-69
2021/04/25 02:39:32;;;;;;;15.32;7.72;;;4.30;73.60;;;;;;5078099;28;20025;-68
2021/04/25 02:41:57;;;;;;;13.63;8.52;;;4.40;73.20;;;;;;5077984;28;20056;-69
2021/04/25 02:44:23;;;;;;;14.25;8.82;;;4.50;73.20;;;;;;5078467;28;20033;-68
2021/04/25 02:46:49;;;;;;;15.57;7.95;;;4.40;73.30;;;;;;5077617;28;20025;-68
2021/04/25 02:49:15;;;;;;;16.20;7.78;;;4.50;73.20;;;;;;5077917;28;20114;-68
2021/04/25 02:51:41;;;;;;;16.60;8.55;;;4.50;73.00;;;;;;5076946;28;20025;-68
2021/04/25 02:54:06;;;;;;;20.40;8.18;;;4.50;73.10;;;;;;5077878;28;20028;-69
2021/04/25 02:56:32;;;;;;;14.30;7.97;;;4.50;72.90;;;;;;5077561;28;20077;-69
2021/04/25 02:58:58;;;;;;;14.75;8.35;;;4.50;72.90;;;;;;5076709;28;20127;-67
2021/04/25 03:01:25;;;;;;;12.40;7.10;;;4.40;72.60;;;;;;5072246;28;20044;-68
2021/04/25 03:03:51;;;;;;;14.90;7.50;;;4.40;72.40;;;;;;5057764;28;20025;-68
2021/04/25 03:06:16;;;;;;;14.40;7.88;;;4.40;72.30;;;;;;5057578;28;20025;-68
2021/04/25 03:08:42;;;;;;;11.98;6.82;;;4.50;72.00;;;;;;5042486;28;20113;-68
2021/04/25 03:11:07;;;;;;;16.17;8.10;;;4.50;71.70;;;;;;5037689;28;20025;-68
2021/04/25 03:13:33;;;;;;;14.73;8.43;;;4.40;71.70;;;;;;5064644;28;20025;-68
2021/04/25 03:15:58;;;;;;;12.85;6.97;;;4.50;71.90;;;;;;5076319;28;20021;-68
2021/04/25 03:18:24;;;;;;;13.07;6.97;;;4.50;71.60;;;;;;5076190;28;20031;-68
2021/04/25 03:20:49;;;;;;;14.60;7.45;;;4.50;71.80;;;;;;5076278;28;20051;-68
2021/04/25 03:23:15;;;;;;;16.70;7.40;;;4.60;71.40;;;;;;5076622;28;20037;-68
2021/04/25 03:25:41;;;;;;;14.30;7.82;;;4.60;71.20;;;;;;5077701;28;20029;-69
2021/04/25 03:28:06;;;;;;;15.40;8.07;;;4.60;71.10;;;;;;5077348;28;20081;-69
2021/04/25 03:30:35;;;;;;;12.50;7.00;;;4.50;71.20;;;;;;5076355;28;20074;-69
2021/04/25 03:33:00;;;;;;;14.63;7.78;;;4.50;71.10;;;;;;5073037;28;20021;-69
2021/04/25 03:35:26;;;;;;;12.15;6.70;;;4.50;71.50;;;;;;5062308;28;20018;-69
2021/04/25 03:37:51;;;;;;;14.82;7.38;;;4.50;71.80;;;;;;5061922;28;20021;-69
2021/04/25 03:40:19;;;;;;;14.57;7.80;;;4.50;71.70;;;;;;5074315;28;20094;-69
2021/04/25 03:42:45;;;;;;;10.57;6.45;;;4.60;70.80;;;;;;5073090;28;20028;-69
2021/04/25 03:45:13;;;;;;;12.98;7.50;;;4.60;70.90;;;;;;5074163;28;20394;-69
2021/04/25 03:47:41;;;;;;;13.38;6.60;;;4.60;70.80;;;;;;5074046;28;20091;-69
2021/04/25 03:50:07;;;;;;;12.07;6.72;;;4.60;70.90;;;;;;5074147;28;20020;-69
2021/04/25 03:52:33;;;;;;;13.23;7.07;;;4.60;70.90;;;;;;5074005;28;20119;-69
2021/04/25 03:54:58;;;;;;;14.45;8.02;;;4.60;70.90;;;;;;5074164;28;20103;-69
2021/04/25 03:57:24;;;;;;;12.90;7.38;;;4.50;70.80;;;;;;5073903;28;20025;-69
2021/04/25 03:59:49;;;;;;;13.30;7.70;;;4.50;70.90;;;;;;5074182;28;20111;-69
2021/04/25 04:02:15;;;;;;;13.85;6.97;;;4.50;70.80;;;;;;5062255;28;20083;-69
2021/04/25 04:04:41;;;;;;;13.18;7.20;;;4.60;71.00;;;;;;5055156;28;20094;-69
2021/04/25 04:07:06;;;;;;;13.75;7.82;;;4.70;70.90;;;;;;5052629;28;20035;-69
2021/04/25 04:09:32;;;;;;;13.48;6.97;;;4.60;70.40;;;;;;5034016;28;20033;-68
2021/04/25 04:11:57;;;;;;;11.85;6.90;;;4.80;70.70;;;;;;5033236;28;20021;-69
2021/04/25 04:14:23;;;;;;;12.60;6.50;;;4.70;70.10;;;;;;5073564;28;20489;-69
2021/04/25 04:16:48;;;;;;;10.43;6.57;;;4.50;70.70;;;;;;5073636;28;20028;-69
2021/04/25 04:19:14;;;;;;;17.50;7.43;;;4.50;70.80;;;;;;5074281;28;20025;-70
2021/04/25 04:21:39;;;;;;;14.77;7.50;;;4.60;71.00;;;;;;5073810;28;20040;-69
2021/04/25 04:24:05;;;;;;;14.00;7.47;;;4.60;71.20;;;;;;5073622;28;20032;-69
2021/04/25 04:26:31;;;;;;;12.73;6.57;;;4.70;71.00;;;;;;5072315;28;20375;-69
2021/04/25 04:28:56;;;;;;;11.98;7.35;;;4.70;71.00;;;;;;5061633;28;20399;-69
2021/04/25 04:31:22;;;;;;;11.85;6.75;;;4.80;70.90;;;;;;5052428;28;20063;-69
2021/04/25 04:33:48;;;;;;;13.50;7.15;;;4.90;70.70;;;;;;5052802;28;20074;-68
2021/04/25 04:36:13;;;;;;;13.85;7.30;;;4.90;70.20;;;;;;5039389;28;20519;-69
2021/04/25 04:38:39;;;;;;;11.77;6.60;;;4.80;70.10;;;;;;5065083;28;20104;-69
2021/04/25 04:41:05;;;;;;;16.02;7.85;;;4.90;70.10;;;;;;5077560;28;20016;-68
2021/04/25 04:43:30;;;;;;;15.52;7.10;;;5.00;69.60;;;;;;5078513;28;20491;-68
2021/04/25 04:45:56;;;;;;;12.20;7.10;;;5.00;69.60;;;;;;5079182;28;20024;-68
2021/04/25 04:48:27;;;;;;;15.77;7.75;;;5.10;69.50;;;;;;5071616;28;20028;-68
2021/04/25 04:50:52;;;;;;;16.23;7.25;;;5.00;69.50;;;;;;5073326;28;20045;-68
2021/04/25 04:53:18;;;;;;;16.42;7.32;;;5.00;69.90;;;;;;5072986;28;20109;-69
2021/04/25 04:55:43;;;;;;;14.05;6.60;;;5.10;69.70;;;;;;5071497;28;20025;-69
2021/04/25 04:58:10;;;;;;;14.02;6.55;;;5.30;69.10;;;;;;5072361;28;20103;-70
2021/04/25 05:00:36;;;;;;;10.90;6.45;;;5.30;68.90;;;;;;5072880;28;20078;-69
2021/04/25 05:03:01;;;;;;;9.57;6.43;;;5.30;69.10;;;;;;5053735;28;20028;-69
2021/04/25 05:05:27;;;;;;;12.73;7.63;;;5.40;68.70;;;;;;5052611;28;20048;-69
2021/04/25 05:07:53;;;;;;;14.57;6.55;;;5.30;68.70;;;;;;5043904;28;20017;-69
2021/04/25 05:10:18;;;;;;;15.05;7.15;;;5.30;69.10;;;;;;5032520;28;20021;-68
2021/04/25 05:12:44;;;;;;;11.25;7.13;;;5.40;69.30;;;;;;5044784;28;20059;-68
2021/04/25 05:15:09;;;;;;;14.70;7.18;;;5.50;68.60;;;;;;5072329;28;20052;-69
2021/04/25 05:17:35;;;;;;;13.00;7.00;;;5.50;68.90;;;;;;5072242;28;20034;-69
2021/04/25 05:20:01;;;;;;;10.20;6.53;;;5.50;68.20;;;;;;5072312;28;20131;-68
2021/04/25 05:22:27;;;;;;;12.50;6.85;;;5.80;67.50;;;;;;5072306;28;20028;-69
2021/04/25 05:24:52;;;;;;;16.10;6.97;;;5.90;66.60;;;;;;5070866;28;20375;-67
2021/04/25 05:27:18;;;;;;;12.00;6.47;;;5.90;66.50;;;;;;5071833;28;20071;-68
2021/04/25 05:29:44;;;;;;;13.75;6.32;;;6.00;66.30;;;;;;5071901;28;20024;-68
2021/04/25 05:32:09;;;;;;;11.77;6.72;;;6.00;66.30;;;;;;5072222;28;20029;-68
2021/04/25 05:34:35;;;;;;;11.57;6.28;;;6.00;66.20;;;;;;5053673;28;20521;-68
2021/04/25 05:37:01;;;;;;;11.60;6.55;;;6.10;66.10;;;;;;5053883;28;20032;-69
2021/04/25 05:39:27;;;;;;;17.73;7.53;;;6.30;65.80;;;;;;5071815;28;20063;-69
2021/04/25 05:41:52;;;;;;;13.57;7.15;;;6.20;67.10;;;;;;5071999;28;20030;-69
2021/04/25 05:44:20;;;;;;;12.02;7.50;;;6.20;66.50;;;;;;5072444;28;20412;-69
2021/04/25 05:46:46;;;;;;;13.25;7.88;;;6.30;66.60;;;;;;5071898;28;20029;-70
2021/04/25 05:49:11;;;;;;;13.50;8.25;;;6.40;66.50;;;;;;5071848;28;20112;-70
2021/04/25 05:51:37;;;;;;;12.68;8.57;;;6.50;66.90;;;;;;5071867;28;20064;-70
2021/04/25 05:54:03;;;;;;;15.77;8.63;;;6.60;66.30;;;;;;5069957;28;20082;-70
2021/04/25 05:56:30;;;;;;;14.80;8.48;;;6.80;65.80;;;;;;5070197;28;20465;-70
2021/04/25 05:58:56;;;;;;;15.75;8.50;;;6.90;64.70;;;;;;5070086;28;20052;-70
2021/04/25 06:01:21;;;;;;;13.48;7.50;;;7.20;64.10;;;;;;5066393;28;20025;-70
2021/04/25 06:03:47;;;;;;;11.88;7.38;;;7.30;63.90;;;;;;5051737;28;20080;-69
2021/04/25 06:06:14;;;;;;;14.55;7.07;;;7.50;63.40;;;;;;5051485;28;20096;-70
2021/04/25 06:08:39;;;;;;;11.20;7.25;;;7.70;62.20;;;;;;5035257;28;20041;-69
2021/04/25 06:11:05;;;;;;;11.80;7.18;;;7.60;62.50;;;;;;5031566;28;20111;-70
2021/04/25 06:13:31;;;;;;;11.35;7.20;;;7.80;61.40;;;;;;5057706;28;20043;-70
2021/04/25 06:15:56;;;;;;;13.15;7.45;;;7.90;61.10;;;;;;5071705;28;20091;-69
2021/04/25 06:18:22;;;;;;;12.65;7.07;;;8.20;60.50;;;;;;5071411;28;20055;-70
2021/04/25 06:20:48;;;;;;;15.35;7.05;;;8.30;60.80;;;;;;5071590;28;20028;-69
2021/04/25 06:23:14;;;;;;;12.88;7.68;;;8.30;60.30;;;;;;5070064;28;20078;-69
2021/04/25 06:25:40;;;;;;;11.50;7.07;;;8.40;60.20;;;;;;5071429;28;20501;-69
2021/04/25 06:28:06;;;;;;;14.05;7.60;;;8.50;59.90;;;;;;5069699;28;20028;-70
2021/04/25 06:30:31;;;;;;;14.00;7.82;;;8.50;58.80;;;;;;5069889;28;20196;-70
2021/04/25 06:32:57;;;;;;;16.08;7.40;;;8.50;58.90;;;;;;5071407;28;20017;-70
2021/04/25 06:35:23;;;;;;;13.73;7.07;;;8.60;58.80;;;;;;5059716;28;20036;-70
2021/04/25 06:37:48;;;;;;;10.77;6.35;;;8.70;58.30;;;;;;5048299;28;20028;-70
2021/04/25 06:40:15;;;;;;;11.63;7.30;;;8.80;57.80;;;;;;5071173;28;20563;-69
2021/04/25 06:42:42;;;;;;;66.88;43.80;;;8.90;57.40;;;;;;5071393;28;20104;-70
2021/04/25 06:45:13;;;;;;;19.02;10.77;;;9.20;57.50;;;;;;5071724;28;20039;-70
2021/04/25 06:47:39;;;;;;;13.98;7.72;;;9.30;55.90;;;;;;5071021;28;20502;-67
2021/04/25 06:50:07;;;;;;;12.63;7.38;;;9.40;56.10;;;;;;5069890;28;20037;-70
2021/04/25 06:52:33;;;;;;;12.25;7.15;;;9.50;54.90;;;;;;5070988;28;20020;-69
2021/04/25 06:54:59;;;;;;;11.07;7.03;;;9.70;54.60;;;;;;5070291;28;20036;-69
2021/04/25 06:57:24;;;;;;;13.30;6.65;;;9.90;54.20;;;;;;5069938;28;20021;-69
2021/04/25 06:59:50;;;;;;;13.73;6.60;;;9.90;53.20;;;;;;5069830;28;20041;-70
2021/04/25 07:02:15;;;;;;;20.08;7.60;;;9.80;53.30;;;;;;5058599;28;20079;-70
2021/04/25 07:04:41;;;;;;;17.40;8.48;;;9.40;54.60;;;;;;5051070;28;20087;-70
2021/04/25 07:07:07;;;;;;;11.60;7.43;;;9.30;55.10;;;;;;5052410;28;20036;-69
2021/04/25 07:09:33;;;;;;;10.93;7.00;;;9.50;53.70;;;;;;5034939;28;20065;-70
2021/04/25 07:11:58;;;;;;;14.25;6.65;;;8.90;55.60;;;;;;5034157;28;20120;-70
2021/04/25 07:14:26;;;;;;;11.98;6.65;;;9.00;54.20;;;;;;5073399;28;20016;-70
2021/04/25 07:16:52;;;;;;;13.60;6.80;;;9.70;52.50;;;;;;5074509;28;20540;-70
2021/04/25 07:19:17;;;;;;;13.63;6.20;;;10.10;51.60;;;;;;5088531;22;20048;-69
2021/04/25 07:21:43;;;;;;;14.45;6.22;;;10.40;50.00;;;;;;5057606;28;20028;-69
2021/04/25 07:24:11;;;;;;;9.02;5.38;;;10.50;49.90;;;;;;5075446;28;20024;-70
2021/04/25 07:26:46;;;;;;;10.10;5.80;;;10.80;47.60;;;;;;5075483;28;20050;-71
2021/04/25 07:29:13;;;;;;;9.77;5.78;;;11.00;46.10;;;;;;5066626;28;20086;-70
2021/04/25 07:31:38;;;;;;;10.45;5.85;;;11.00;46.20;;;;;;5037749;28;20555;-71
2021/04/25 07:34:04;;;;;;;9.43;5.05;;;10.70;47.20;;;;;;5037752;28;20029;-71
2021/04/25 07:36:29;;;;;;;8.82;4.22;;;11.00;44.60;;;;;;5055039;28;20019;-70
2021/04/25 07:38:55;;;;;;;9.70;5.57;;;11.50;42.20;;;;;;5072997;28;20021;-70
2021/04/25 07:41:21;;;;;;;6.63;4.35;;;11.80;40.80;;;;;;5075677;28;20501;-70
2021/04/25 07:43:50;;;;;;;6.30;3.95;;;12.00;42.00;;;;;;5076200;28;20021;-71
2021/04/25 07:46:23;;;;;;;6.47;3.97;;;12.50;41.40;;;;;;5074451;28;20300;-70
2021/04/25 07:48:51;;;;;;;9.00;4.78;;;12.60;38.60;;;;;;5056394;28;20024;-71
2021/04/25 07:51:16;;;;;;;6.75;4.15;;;12.70;39.00;;;;;;5074593;28;20020;-70
2021/04/25 07:53:42;;;;;;;7.10;4.10;;;12.90;37.60;;;;;;5056662;28;20031;-72
2021/04/25 07:56:08;;;;;;;5.32;3.78;;;13.10;38.00;;;;;;5074100;28;20016;-70
2021/04/25 07:58:34;;;;;;;7.82;3.65;;;13.00;36.90;;;;;;5074436;28;20025;-71
2021/04/25 08:01:00;;;;;;;7.45;4.22;;;13.30;35.10;;;;;;5072141;28;20020;-71
2021/04/25 08:03:31;;;;;;;5.22;3.25;;;12.50;35.90;;;;;;5054416;28;20055;-71
2021/04/25 08:05:57;;;;;;;5.70;3.33;;;12.40;36.90;;;;;;5052827;28;20086;-70
2021/04/25 08:08:22;;;;;;;4.90;2.97;;;12.60;37.20;;;;;;5041258;28;20065;-69
2021/04/25 08:10:48;;;;;;;7.25;3.65;;;12.90;35.70;;;;;;5033915;28;20025;-70
2021/04/25 08:13:14;;;;;;;533.13;380.25;;;13.10;35.50;;;;;;5037725;28;20017;-69
2021/04/25 08:15:39;;;;;;;6.88;3.63;;;13.40;35.80;;;;;;5056020;28;20151;-70
2021/04/25 08:18:08;;;;;;;5.28;3.45;;;13.90;33.40;;;;;;5072686;28;20012;-69
2021/04/25 08:20:33;;;;;;;6.30;3.33;;;13.70;33.50;;;;;;5073665;28;20046;-70
2021/04/25 08:22:59;;;;;;;5.20;3.13;;;13.40;34.40;;;;;;5073253;28;20112;-70
2021/04/25 08:25:25;;;;;;;6.93;3.15;;;12.40;35.50;;;;;;5073289;28;20024;-70
2021/04/25 08:27:50;;;;;;;12.73;3.70;;;11.50;37.70;;;;;;5073269;28;20025;-70
2021/04/25 08:30:16;;;;;;;7.10;3.50;;;11.80;37.90;;;;;;5073238;28;20073;-70
2021/04/25 08:32:42;;;;;;;5.65;3.30;;;13.10;36.30;;;;;;5073744;28;20064;-70
2021/04/25 08:35:08;;;;;;;4.95;3.17;;;14.00;33.80;;;;;;5068201;28;20059;-70
2021/04/25 08:37:34;;;;;;;6.72;3.38;;;13.70;33.40;;;;;;5054622;28;20039;-70
2021/04/25 08:39:59;;;;;;;8.43;3.72;;;14.30;32.60;;;;;;5055066;28;20486;-69
2021/04/25 08:42:25;;;;;;;6.35;3.00;;;15.10;31.30;;;;;;5073272;28;20021;-70
2021/04/25 08:44:54;;;;;;;8.05;3.35;;;15.80;30.00;;;;;;5073252;28;20474;-70
2021/04/25 08:47:20;;;;;;;7.05;3.28;;;16.00;29.70;;;;;;5073077;28;20481;-69
2021/04/25 08:49:48;;;;;;;8.55;3.55;;;16.10;29.10;;;;;;5072931;28;20475;-71
2021/04/25 08:52:14;;;;;;;7.20;3.58;;;15.30;29.80;;;;;;5072791;28;20550;-70
2021/04/25 08:54:41;;;;;;;6.35;3.47;;;15.40;31.10;;;;;;5054854;28;20070;-70
2021/04/25 08:57:07;;;;;;;5.22;3.50;;;16.10;31.70;;;;;;5072741;28;20203;-70
2021/04/25 08:59:33;;;;;;;6.72;3.58;;;16.70;29.80;;;;;;5054712;28;20025;-69
2021/04/25 09:02:01;;;;;;;6.95;3.60;;;17.30;30.30;;;;;;5062517;28;20513;-70
2021/04/25 09:04:27;;;;;;;4.65;3.15;;;17.70;30.20;;;;;;5052682;28;20673;-70
2021/04/25 09:07:05;;;;;;;236.05;196.85;;;18.00;28.90;;;;;;5052215;28;20033;-69
2021/04/25 09:09:49;;;;;;;10.05;5.95;;;18.60;28.00;;;;;;5031301;28;20075;-70
2021/04/25 09:12:33;;;;;;;7.50;4.80;;;19.50;26.80;;;;;;5037912;28;20026;-70
2021/04/25 09:14:59;;;;;;;14.05;8.60;;;20.60;25.20;;;;;;5072175;28;20017;-70
2021/04/25 09:17:25;;;;;;;12.48;7.97;;;21.40;24.00;;;;;;5072215;28;20055;-70
2021/04/25 09:19:58;;;;;;;8.07;4.05;;;21.00;23.50;;;;;;5072164;28;20036;-70
2021/04/25 09:22:44;;;;;;;8.50;3.60;;;20.50;25.10;;;;;;5072368;28;20031;-71
2021/04/25 09:25:15;;;;;;;6.97;3.67;;;20.80;23.70;;;;;;5054487;28;20078;-70
2021/04/25 09:27:42;;;;;;;6.75;3.63;;;21.40;24.00;;;;;;5072178;28;20025;-71
2021/04/25 09:30:09;;;;;;;10.43;4.32;;;21.70;22.60;;;;;;5053962;28;20032;-70
2021/04/25 09:32:34;;;;;;;8.40;3.53;;;22.10;23.20;;;;;;5054123;28;20032;-70
2021/04/25 09:35:12;;;;;;;7.40;3.83;;;22.20;22.20;;;;;;5050079;28;20017;-71
2021/04/25 09:37:45;;;;;;;67.40;41.75;;;22.30;22.20;;;;;;5041008;28;20024;-71
2021/04/25 09:40:15;;;;;;;9.30;4.50;;;22.50;21.70;;;;;;5053677;28;20032;-70
2021/04/25 09:43:00;;;;;;;8.77;3.33;;;21.90;22.30;;;;;;5071823;28;20036;-70
2021/04/25 09:45:28;;;;;;;3.67;3.03;;;21.30;21.10;;;;;;5053985;28;20020;-70
2021/04/25 09:47:55;;;;;;;5.47;3.15;;;20.80;21.80;;;;;;5071619;28;20431;-70
2021/04/25 09:50:22;;;;;;;10.52;5.07;;;20.20;23.20;;;;;;5053469;28;20040;-69
2021/04/25 09:52:50;;;;;;;6.13;3.75;;;19.70;22.60;;;;;;5071669;28;20509;-70
2021/04/25 09:55:21;;;;;;;6.35;3.28;;;19.50;23.60;;;;;;5053746;28;20027;-69
2021/04/25 09:57:49;;;;;;;6.43;3.53;;;19.50;24.80;;;;;;5053394;28;20494;-70
2021/04/25 10:00:16;;;;;;;6.80;3.30;;;18.50;24.40;;;;;;5072078;28;20078;-69
2021/04/25 10:03:18;;;;;;;8.75;3.78;;;17.80;26.70;;;;;;5037534;28;20079;-69
2021/04/25 10:06:01;;;;;;;6.65;4.03;;;16.80;26.60;;;;;;5051529;28;20116;-70
2021/04/25 10:08:49;;;;;;;5.43;3.60;;;16.30;28.50;;;;;;5038411;28;20025;-69
2021/04/25 10:11:16;;;;;;;6.38;3.17;;;16.80;26.00;;;;;;5031570;28;20029;-70
2021/04/25 10:13:45;;;;;;;7.32;3.58;;;16.60;26.40;;;;;;5060830;28;20025;-71
2021/04/25 10:16:12;;;;;;;6.13;3.30;;;16.50;27.30;;;;;;5071489;28;20096;-70
2021/04/25 10:18:38;;;;;;;6.10;3.10;;;15.80;27.30;;;;;;5053432;28;20032;-70
2021/04/25 10:21:03;;;;;;;7.65;3.67;;;16.10;29.00;;;;;;5053581;28;20536;-70
2021/04/25 10:23:29;;;;;;;8.10;4.03;;;16.50;28.90;;;;;;5071691;28;20020;-70
2021/04/25 10:25:55;;;;;;;6.75;3.97;;;17.00;30.20;;;;;;5071967;28;20040;-70
2021/04/25 10:28:31;;;;;;;7.32;3.92;;;17.00;29.70;;;;;;5071768;28;20048;-69
2021/04/25 10:31:06;;;;;;;6.63;3.83;;;16.50;29.60;;;;;;5071803;28;20108;-71
2021/04/25 10:33:58;;;;;;;7.03;3.97;;;16.30;29.40;;;;;;5071563;28;20107;-68
2021/04/25 10:36:47;;;;;;;16.10;10.02;;;16.10;29.90;;;;;;5040909;28;20497;-70
2021/04/25 10:39:31;;;;;;;6.82;4.28;;;16.20;31.00;;;;;;5051106;28;20044;-70
2021/04/25 10:42:20;;;;;;;7.15;4.00;;;16.20;29.60;;;;;;5054700;28;20021;-69
2021/04/25 10:45:16;;;;;;;27.90;15.32;;;15.90;29.60;;;;;;5055313;28;20036;-70
2021/04/25 10:47:44;;;;;;;6.50;4.10;;;15.50;29.70;;;;;;5055079;28;20037;-69
2021/04/25 10:50:09;;;;;;;7.00;3.83;;;15.70;28.80;;;;;;5055114;28;20477;-70
2021/04/25 10:52:36;;;;;;;7.82;3.60;;;15.30;30.70;;;;;;5037159;28;20116;-69
2021/04/25 10:55:11;;;;;;;5.43;3.33;;;15.40;29.70;;;;;;5055078;28;20028;-70
2021/04/25 10:57:52;;;;;;;10.63;3.78;;;15.30;30.30;;;;;;5054831;28;20017;-69
2021/04/25 11:00:33;;;;;;;6.25;3.55;;;15.10;29.70;;;;;;5055273;28;20036;-69
2021/04/25 11:03:09;;;;;;;5.72;3.72;;;15.20;29.70;;;;;;5054928;28;20507;-70
2021/04/25 11:05:41;;;;;;;6.90;2.95;;;14.80;31.00;;;;;;5054093;28;20087;-70
2021/04/25 11:08:26;;;;;;;5.88;3.65;;;14.90;30.90;;;;;;5043071;28;20017;-70
2021/04/25 11:10:51;;;;;;;7.63;3.70;;;14.60;31.50;;;;;;5035106;28;20468;-70
2021/04/25 11:13:49;;;;;;;6.70;3.90;;;14.80;31.50;;;;;;5055988;28;20047;-70
2021/04/25 11:16:16;;;;;;;7.72;3.78;;;14.80;32.30;;;;;;5074610;28;20031;-69
2021/04/25 11:19:09;;;;;;;6.82;3.55;;;15.00;31.80;;;;;;5074581;28;20032;-70
2021/04/25 11:21:42;;;;;;;9.27;4.05;;;14.90;31.10;;;;;;5074694;28;20032;-69
2021/04/25 11:24:08;;;;;;;10.40;3.70;;;14.80;31.30;;;;;;5074395;28;20107;-69
2021/04/25 11:26:39;;;;;;;6.90;3.22;;;15.00;31.00;;;;;;5074559;28;20106;-70
2021/04/25 11:29:12;;;;;;;27.73;17.20;;;15.00;31.50;;;;;;5074493;28;20486;-70
2021/04/25 11:31:44;;;;;;;96.32;64.18;;;14.90;32.10;;;;;;5074394;28;20162;-69
2021/04/25 11:34:24;;;;;;;3.97;3.20;;;15.10;31.90;;;;;;5073234;28;20025;-71
2021/04/25 11:36:51;;;;;;;9.00;3.50;;;14.90;30.00;;;;;;5037943;28;20024;-70
2021/04/25 11:39:39;;;;;;;9.13;4.40;;;14.90;31.50;;;;;;5074546;28;20042;-71
2021/04/25 11:42:06;;;;;;;4.72;3.63;;;14.90;31.30;;;;;;5057157;28;20112;-70
2021/04/25 11:44:35;;;;;;;7.60;3.80;;;15.10;31.40;;;;;;5057075;28;20071;-71
2021/04/25 11:47:09;;;;;;;6.32;3.67;;;15.10;31.20;;;;;;5074441;28;20028;-70
2021/04/25 11:49:40;;;;;;;7.60;3.88;;;15.20;31.80;;;;;;5075407;28;20025;-71
2021/04/25 11:52:10;;;;;;;7.38;3.78;;;14.70;31.30;;;;;;5055255;28;20032;-71
2021/04/25 11:54:37;;;;;;;10.20;4.30;;;14.50;32.00;;;;;;5075369;28;20033;-70
2021/04/25 11:57:20;;;;;;;11.13;3.67;;;14.60;31.60;;;;;;5074816;28;20024;-70
2021/04/25 11:59:54;;;;;;;5.82;3.40;;;14.60;33.20;;;;;;5073726;28;20207;-71
2021/04/25 12:02:20;;;;;;;7.88;3.53;;;15.10;31.60;;;;;;5061440;28;20048;-70
2021/04/25 12:04:58;;;;;;;6.38;3.65;;;15.40;31.20;;;;;;5036761;28;20131;-69
2021/04/25 12:07:44;;;;;;;7.93;3.58;;;15.40;30.40;;;;;;5048534;28;20396;-69
2021/04/25 12:10:16;;;;;;;7.38;3.22;;;15.10;29.10;;;;;;5033872;28;20029;-70
2021/04/25 12:13:07;;;;;;;6.22;3.53;;;14.80;29.80;;;;;;5046639;28;20077;-71
2021/04/25 12:15:41;;;;;;;6.85;3.63;;;14.30;33.30;;;;;;5065555;28;20113;-70
2021/04/25 12:18:07;;;;;;;6.15;3.75;;;14.30;31.50;;;;;;5073586;28;20024;-69
2021/04/25 12:20:48;;;;;;;6.20;3.50;;;14.40;32.30;;;;;;5074342;28;20043;-70
2021/04/25 12:23:16;;;;;;;6.97;3.38;;;14.50;32.10;;;;;;5055682;28;20115;-71
2021/04/25 12:26:39;;;;;;;41.55;22.92;;;14.10;30.80;;;;;;5072809;28;20033;-73
2021/04/25 12:29:07;;;;;;;5.05;3.47;;;14.10;33.10;;;;;;5068035;28;20059;-71
2021/04/25 12:32:06;;;;;;;6.63;2.85;;;14.00;33.00;;;;;;5072906;28;20079;-71
2021/04/25 12:35:07;;;;;;;4.68;3.30;;;13.90;32.00;;;;;;5057327;28;20021;-73
2021/04/25 12:37:46;;;;;;;5.63;3.13;;;13.00;33.10;;;;;;5046746;28;20298;-71
2021/04/25 12:41:01;;;;;;;6.00;3.33;;;12.70;35.30;;;;;;5075138;28;20440;-71
2021/04/25 13:01:52;;;;;;;6.05;3.42;;;12.50;36.50;;;;;;5180846;22;20514;-71
2021/04/25 13:04:50;;;;;;;5.22;3.00;;;12.60;36.60;;;;;;5073598;28;20085;-72
2021/04/25 13:07:43;;;;;;;5.53;3.55;;;12.60;38.00;;;;;;5073957;28;20020;-71
2021/04/25 13:10:37;;;;;;;6.50;3.22;;;12.60;37.70;;;;;;5073166;28;20032;-72
2021/04/25 13:13:19;;;;;;;6.72;3.58;;;12.40;38.20;;;;;;5064808;28;20025;-71